sensor_id;sensor_type;location;lat;lon;timestamp;P1;durP1;ratioP1;P2;durP2;ratioP2
7162;SDS011;3623;47.098;15.446;2022-08-19T00:01:21;5.20;;;3.67;;
7162;SDS011;3623;47.098;15.446;2022-08-19T00:03:50;6.27;;;3.57;;
7162;SDS011;3623;47.098;15.446;2022-08-19T00:06:18;6.13;;;3.53;;
7162;SDS011;3623;47.098;15.446;2022-08-19T00:08:45;3.90;;;3.53;;
7162;SDS011;3623;47.098;15.446;2022-08-19T00:11:12;8.23;;;4.27;;
7162;SDS011;3623;47.098;15.446;2022-08-19T00:13:39;5.17;;;3.40;;
7162;SDS011;3623;47.098;15.446;2022-08-19T00:16:07;7.47;;;4.17;;
7162;SDS011;3623;47.098;15.446;2022-08-19T00:18:34;7.87;;;4.50;;
7162;SDS011;3623;47.098;15.446;2022-08-19T00:21:03;8.27;;;4.77;;
7162;SDS011;3623;47.098;15.446;2022-08-19T00:23:32;4.13;;;3.27;;
7162;SDS011;3623;47.098;15.446;2022-08-19T00:26:01;4.57;;;3.60;;
7162;SDS011;3623;47.098;15.446;2022-08-19T00:28:29;9.10;;;4.90;;
7162;SDS011;3623;47.098;15.446;2022-08-19T00:30:56;10.33;;;4.50;;
7162;SDS011;3623;47.098;15.446;2022-08-19T00:33:23;13.83;;;5.00;;
7162;SDS011;3623;47.098;15.446;2022-08-19T00:35:51;6.00;;;5.07;;
7162;SDS011;3623;47.098;15.446;2022-08-19T00:38:19;8.60;;;4.23;;
7162;SDS011;3623;47.098;15.446;2022-08-19T00:40:47;6.23;;;4.43;;
7162;SDS011;3623;47.098;15.446;2022-08-19T00:43:18;6.27;;;4.87;;
7162;SDS011;3623;47.098;15.446;2022-08-19T00:45:47;9.03;;;4.07;;
7162;SDS011;3623;47.098;15.446;2022-08-19T00:48:15;9.53;;;5.27;;
7162;SDS011;3623;47.098;15.446;2022-08-19T00:50:43;12.47;;;5.93;;
7162;SDS011;3623;47.098;15.446;2022-08-19T00:53:12;9.97;;;5.00;;
7162;SDS011;3623;47.098;15.446;2022-08-19T00:55:44;9.17;;;5.57;;
7162;SDS011;3623;47.098;15.446;2022-08-19T00:58:14;8.80;;;4.40;;
7162;SDS011;3623;47.098;15.446;2022-08-19T01:00:43;8.53;;;5.60;;
7162;SDS011;3623;47.098;15.446;2022-08-19T01:03:12;8.90;;;5.30;;
7162;SDS011;3623;47.098;15.446;2022-08-19T01:05:42;9.40;;;4.90;;
7162;SDS011;3623;47.098;15.446;2022-08-19T01:08:11;7.37;;;5.40;;
7162;SDS011;3623;47.098;15.446;2022-08-19T01:10:43;12.43;;;5.50;;
7162;SDS011;3623;47.098;15.446;2022-08-19T01:13:14;8.80;;;6.27;;
7162;SDS011;3623;47.098;15.446;2022-08-19T01:15:44;8.87;;;5.50;;
7162;SDS011;3623;47.098;15.446;2022-08-19T01:18:15;9.80;;;5.57;;
7162;SDS011;3623;47.098;15.446;2022-08-19T01:20:45;8.20;;;5.60;;
7162;SDS011;3623;47.098;15.446;2022-08-19T01:23:14;9.03;;;5.80;;
7162;SDS011;3623;47.098;15.446;2022-08-19T01:25:44;8.90;;;5.23;;
7162;SDS011;3623;47.098;15.446;2022-08-19T01:28:15;8.30;;;6.00;;
7162;SDS011;3623;47.098;15.446;2022-08-19T01:30:44;12.07;;;6.10;;
7162;SDS011;3623;47.098;15.446;2022-08-19T01:33:12;9.10;;;5.60;;
7162;SDS011;3623;47.098;15.446;2022-08-19T01:35:40;6.80;;;6.20;;
7162;SDS011;3623;47.098;15.446;2022-08-19T01:38:09;12.10;;;7.30;;
7162;SDS011;3623;47.098;15.446;2022-08-19T01:40:47;7.93;;;5.50;;
7162;SDS011;3623;47.098;15.446;2022-08-19T01:43:14;8.20;;;6.37;;
7162;SDS011;3623;47.098;15.446;2022-08-19T01:45:44;9.20;;;6.23;;
7162;SDS011;3623;47.098;15.446;2022-08-19T01:48:12;11.13;;;5.90;;
7162;SDS011;3623;47.098;15.446;2022-08-19T01:50:41;8.83;;;6.17;;
7162;SDS011;3623;47.098;15.446;2022-08-19T01:53:09;6.23;;;5.63;;
7162;SDS011;3623;47.098;15.446;2022-08-19T01:55:41;14.00;;;6.03;;
7162;SDS011;3623;47.098;15.446;2022-08-19T01:58:10;6.27;;;5.60;;
7162;SDS011;3623;47.098;15.446;2022-08-19T02:00:40;8.43;;;5.80;;
7162;SDS011;3623;47.098;15.446;2022-08-19T02:03:08;10.40;;;6.77;;
7162;SDS011;3623;47.098;15.446;2022-08-19T02:05:36;10.27;;;5.67;;
7162;SDS011;3623;47.098;15.446;2022-08-19T02:08:04;8.43;;;4.80;;
7162;SDS011;3623;47.098;15.446;2022-08-19T02:10:47;7.83;;;4.90;;
7162;SDS011;3623;47.098;15.446;2022-08-19T02:13:15;7.83;;;5.00;;
7162;SDS011;3623;47.098;15.446;2022-08-19T02:15:42;7.47;;;4.73;;
7162;SDS011;3623;47.098;15.446;2022-08-19T02:18:09;14.93;;;6.67;;
7162;SDS011;3623;47.098;15.446;2022-08-19T02:20:37;13.23;;;5.20;;
7162;SDS011;3623;47.098;15.446;2022-08-19T02:23:06;7.10;;;5.40;;
7162;SDS011;3623;47.098;15.446;2022-08-19T02:25:34;10.23;;;6.60;;
7162;SDS011;3623;47.098;15.446;2022-08-19T02:28:03;6.77;;;5.53;;
7162;SDS011;3623;47.098;15.446;2022-08-19T02:30:31;6.60;;;5.70;;
7162;SDS011;3623;47.098;15.446;2022-08-19T02:32:58;11.27;;;5.70;;
7162;SDS011;3623;47.098;15.446;2022-08-19T02:35:26;7.63;;;5.63;;
7162;SDS011;3623;47.098;15.446;2022-08-19T02:37:53;6.10;;;5.50;;
7162;SDS011;3623;47.098;15.446;2022-08-19T02:40:39;8.27;;;5.00;;
7162;SDS011;3623;47.098;15.446;2022-08-19T02:43:08;10.03;;;6.20;;
7162;SDS011;3623;47.098;15.446;2022-08-19T02:45:36;8.30;;;6.10;;
7162;SDS011;3623;47.098;15.446;2022-08-19T02:48:04;9.97;;;5.67;;
7162;SDS011;3623;47.098;15.446;2022-08-19T02:50:32;9.17;;;6.43;;
7162;SDS011;3623;47.098;15.446;2022-08-19T02:52:59;7.27;;;5.83;;
7162;SDS011;3623;47.098;15.446;2022-08-19T02:55:30;6.70;;;6.03;;
7162;SDS011;3623;47.098;15.446;2022-08-19T02:57:57;10.80;;;6.60;;
7162;SDS011;3623;47.098;15.446;2022-08-19T03:00:27;8.30;;;7.30;;
7162;SDS011;3623;47.098;15.446;2022-08-19T03:02:54;7.73;;;5.73;;
7162;SDS011;3623;47.098;15.446;2022-08-19T03:05:22;10.47;;;6.27;;
7162;SDS011;3623;47.098;15.446;2022-08-19T03:07:49;8.83;;;5.90;;
7162;SDS011;3623;47.098;15.446;2022-08-19T03:10:17;7.97;;;7.07;;
7162;SDS011;3623;47.098;15.446;2022-08-19T03:12:44;10.00;;;7.30;;
7162;SDS011;3623;47.098;15.446;2022-08-19T03:15:11;9.10;;;6.23;;
7162;SDS011;3623;47.098;15.446;2022-08-19T03:17:40;13.20;;;6.10;;
7162;SDS011;3623;47.098;15.446;2022-08-19T03:20:07;8.20;;;5.77;;
7162;SDS011;3623;47.098;15.446;2022-08-19T03:22:35;8.47;;;6.20;;
7162;SDS011;3623;47.098;15.446;2022-08-19T03:25:03;8.10;;;5.80;;
7162;SDS011;3623;47.098;15.446;2022-08-19T03:27:30;9.43;;;6.40;;
7162;SDS011;3623;47.098;15.446;2022-08-19T03:29:57;9.53;;;6.83;;
7162;SDS011;3623;47.098;15.446;2022-08-19T03:32:25;12.03;;;6.60;;
7162;SDS011;3623;47.098;15.446;2022-08-19T03:34:53;8.43;;;5.60;;
7162;SDS011;3623;47.098;15.446;2022-08-19T03:37:22;13.20;;;7.33;;
7162;SDS011;3623;47.098;15.446;2022-08-19T03:39:50;8.57;;;7.60;;
7162;SDS011;3623;47.098;15.446;2022-08-19T03:42:17;11.03;;;6.70;;
7162;SDS011;3623;47.098;15.446;2022-08-19T03:44:44;12.53;;;6.73;;
7162;SDS011;3623;47.098;15.446;2022-08-19T03:47:11;9.67;;;6.40;;
7162;SDS011;3623;47.098;15.446;2022-08-19T03:49:44;11.17;;;6.70;;
7162;SDS011;3623;47.098;15.446;2022-08-19T03:52:13;12.67;;;7.23;;
7162;SDS011;3623;47.098;15.446;2022-08-19T03:54:41;8.80;;;6.70;;
7162;SDS011;3623;47.098;15.446;2022-08-19T03:57:08;6.30;;;5.70;;
7162;SDS011;3623;47.098;15.446;2022-08-19T03:59:42;12.80;;;7.33;;
7162;SDS011;3623;47.098;15.446;2022-08-19T04:02:10;9.63;;;7.20;;
7162;SDS011;3623;47.098;15.446;2022-08-19T04:04:41;13.77;;;7.53;;
7162;SDS011;3623;47.098;15.446;2022-08-19T04:07:11;9.13;;;7.37;;
7162;SDS011;3623;47.098;15.446;2022-08-19T04:09:42;12.60;;;7.27;;
7162;SDS011;3623;47.098;15.446;2022-08-19T04:12:09;10.00;;;7.07;;
7162;SDS011;3623;47.098;15.446;2022-08-19T04:14:37;11.80;;;6.70;;
7162;SDS011;3623;47.098;15.446;2022-08-19T04:17:04;12.67;;;8.33;;
7162;SDS011;3623;47.098;15.446;2022-08-19T04:19:37;10.57;;;6.70;;
7162;SDS011;3623;47.098;15.446;2022-08-19T04:22:05;10.53;;;7.47;;
7162;SDS011;3623;47.098;15.446;2022-08-19T04:24:35;12.47;;;6.13;;
7162;SDS011;3623;47.098;15.446;2022-08-19T04:27:04;10.13;;;5.70;;
7162;SDS011;3623;47.098;15.446;2022-08-19T04:29:33;10.17;;;5.50;;
7162;SDS011;3623;47.098;15.446;2022-08-19T04:32:00;7.93;;;5.27;;
7162;SDS011;3623;47.098;15.446;2022-08-19T04:34:28;8.77;;;5.10;;
7162;SDS011;3623;47.098;15.446;2022-08-19T04:36:56;6.10;;;4.83;;
7162;SDS011;3623;47.098;15.446;2022-08-19T04:39:25;10.90;;;5.83;;
7162;SDS011;3623;47.098;15.446;2022-08-19T04:42:10;8.87;;;4.37;;
7162;SDS011;3623;47.098;15.446;2022-08-19T04:44:54;9.47;;;5.10;;
7162;SDS011;3623;47.098;15.446;2022-08-19T04:47:23;4.27;;;3.87;;
7162;SDS011;3623;47.098;15.446;2022-08-19T04:49:57;6.30;;;4.70;;
7162;SDS011;3623;47.098;15.446;2022-08-19T04:52:24;4.43;;;4.03;;
7162;SDS011;3623;47.098;15.446;2022-08-19T04:54:52;8.33;;;4.30;;
7162;SDS011;3623;47.098;15.446;2022-08-19T04:57:21;8.63;;;4.30;;
7162;SDS011;3623;47.098;15.446;2022-08-19T04:59:49;7.30;;;3.80;;
7162;SDS011;3623;47.098;15.446;2022-08-19T05:02:20;13.80;;;5.10;;
7162;SDS011;3623;47.098;15.446;2022-08-19T05:04:49;9.47;;;4.60;;
7162;SDS011;3623;47.098;15.446;2022-08-19T05:07:17;8.50;;;4.57;;
7162;SDS011;3623;47.098;15.446;2022-08-19T05:09:44;8.43;;;4.73;;
7162;SDS011;3623;47.098;15.446;2022-08-19T05:12:11;6.40;;;4.00;;
7162;SDS011;3623;47.098;15.446;2022-08-19T05:14:40;7.23;;;4.70;;
7162;SDS011;3623;47.098;15.446;2022-08-19T05:17:07;6.13;;;4.77;;
7162;SDS011;3623;47.098;15.446;2022-08-19T05:22:21;8.83;;;4.50;;
7162;SDS011;3623;47.098;15.446;2022-08-19T05:25:02;8.13;;;5.33;;
7162;SDS011;3623;47.098;15.446;2022-08-19T05:27:31;8.20;;;5.50;;
7162;SDS011;3623;47.098;15.446;2022-08-19T05:30:04;7.17;;;5.37;;
7162;SDS011;3623;47.098;15.446;2022-08-19T05:32:32;10.50;;;7.43;;
7162;SDS011;3623;47.098;15.446;2022-08-19T05:34:59;7.10;;;5.13;;
7162;SDS011;3623;47.098;15.446;2022-08-19T05:37:26;8.40;;;5.90;;
7162;SDS011;3623;47.098;15.446;2022-08-19T05:39:53;8.90;;;5.77;;
7162;SDS011;3623;47.098;15.446;2022-08-19T05:42:21;13.37;;;7.50;;
7162;SDS011;3623;47.098;15.446;2022-08-19T05:44:49;8.47;;;6.00;;
7162;SDS011;3623;47.098;15.446;2022-08-19T05:47:18;14.90;;;6.10;;
7162;SDS011;3623;47.098;15.446;2022-08-19T05:49:45;7.80;;;5.53;;
7162;SDS011;3623;47.098;15.446;2022-08-19T05:52:15;12.83;;;7.27;;
7162;SDS011;3623;47.098;15.446;2022-08-19T05:54:42;6.73;;;5.83;;
7162;SDS011;3623;47.098;15.446;2022-08-19T05:57:13;7.10;;;5.90;;
7162;SDS011;3623;47.098;15.446;2022-08-19T05:59:41;12.93;;;6.47;;
7162;SDS011;3623;47.098;15.446;2022-08-19T06:02:10;10.20;;;5.93;;
7162;SDS011;3623;47.098;15.446;2022-08-19T06:04:39;33.77;;;9.00;;
7162;SDS011;3623;47.098;15.446;2022-08-19T06:07:08;11.73;;;6.10;;
7162;SDS011;3623;47.098;15.446;2022-08-19T06:09:36;7.40;;;6.27;;
7162;SDS011;3623;47.098;15.446;2022-08-19T06:12:03;7.20;;;5.33;;
7162;SDS011;3623;47.098;15.446;2022-08-19T06:14:31;9.90;;;5.90;;
7162;SDS011;3623;47.098;15.446;2022-08-19T06:17:01;12.30;;;7.80;;
7162;SDS011;3623;47.098;15.446;2022-08-19T06:19:29;10.93;;;5.47;;
7162;SDS011;3623;47.098;15.446;2022-08-19T06:21:59;10.77;;;5.20;;
7162;SDS011;3623;47.098;15.446;2022-08-19T06:24:27;8.83;;;5.17;;
7162;SDS011;3623;47.098;15.446;2022-08-19T06:26:55;7.90;;;5.53;;
7162;SDS011;3623;47.098;15.446;2022-08-19T06:29:25;7.57;;;5.30;;
7162;SDS011;3623;47.098;15.446;2022-08-19T06:31:54;8.90;;;5.40;;
7162;SDS011;3623;47.098;15.446;2022-08-19T06:34:23;6.60;;;4.93;;
7162;SDS011;3623;47.098;15.446;2022-08-19T06:36:51;7.60;;;4.93;;
7162;SDS011;3623;47.098;15.446;2022-08-19T06:39:21;8.10;;;5.57;;
7162;SDS011;3623;47.098;15.446;2022-08-19T06:41:51;8.43;;;5.03;;
7162;SDS011;3623;47.098;15.446;2022-08-19T06:44:21;4.80;;;4.43;;
7162;SDS011;3623;47.098;15.446;2022-08-19T06:46:49;4.90;;;4.50;;
7162;SDS011;3623;47.098;15.446;2022-08-19T06:49:17;6.90;;;5.00;;
7162;SDS011;3623;47.098;15.446;2022-08-19T06:51:45;3.83;;;3.37;;
7162;SDS011;3623;47.098;15.446;2022-08-19T06:54:14;7.73;;;4.13;;
7162;SDS011;3623;47.098;15.446;2022-08-19T06:56:43;6.13;;;4.47;;
7162;SDS011;3623;47.098;15.446;2022-08-19T06:59:12;10.27;;;4.10;;
7162;SDS011;3623;47.098;15.446;2022-08-19T07:01:43;8.57;;;5.50;;
7162;SDS011;3623;47.098;15.446;2022-08-19T07:04:12;8.07;;;4.50;;
7162;SDS011;3623;47.098;15.446;2022-08-19T07:06:40;6.63;;;4.07;;
7162;SDS011;3623;47.098;15.446;2022-08-19T07:09:08;5.90;;;4.20;;
7162;SDS011;3623;47.098;15.446;2022-08-19T07:11:37;11.03;;;4.33;;
7162;SDS011;3623;47.098;15.446;2022-08-19T07:14:06;8.93;;;4.53;;
7162;SDS011;3623;47.098;15.446;2022-08-19T07:16:34;8.10;;;4.20;;
7162;SDS011;3623;47.098;15.446;2022-08-19T07:19:01;8.77;;;4.27;;
7162;SDS011;3623;47.098;15.446;2022-08-19T07:21:28;6.23;;;5.03;;
7162;SDS011;3623;47.098;15.446;2022-08-19T07:23:56;5.30;;;4.80;;
7162;SDS011;3623;47.098;15.446;2022-08-19T07:26:26;8.03;;;4.27;;
7162;SDS011;3623;47.098;15.446;2022-08-19T07:28:54;7.10;;;3.80;;
7162;SDS011;3623;47.098;15.446;2022-08-19T07:31:26;7.20;;;4.87;;
7162;SDS011;3623;47.098;15.446;2022-08-19T07:33:54;9.93;;;4.57;;
7162;SDS011;3623;47.098;15.446;2022-08-19T07:36:23;9.47;;;4.20;;
7162;SDS011;3623;47.098;15.446;2022-08-19T07:38:55;6.10;;;4.40;;
7162;SDS011;3623;47.098;15.446;2022-08-19T07:41:24;10.97;;;4.90;;
7162;SDS011;3623;47.098;15.446;2022-08-19T07:43:53;6.00;;;3.90;;
7162;SDS011;3623;47.098;15.446;2022-08-19T07:46:21;5.73;;;3.90;;
7162;SDS011;3623;47.098;15.446;2022-08-19T07:48:49;8.20;;;4.57;;
7162;SDS011;3623;47.098;15.446;2022-08-19T07:51:18;6.37;;;4.07;;
7162;SDS011;3623;47.098;15.446;2022-08-19T07:53:47;5.70;;;3.97;;
7162;SDS011;3623;47.098;15.446;2022-08-19T07:56:16;5.70;;;3.77;;
7162;SDS011;3623;47.098;15.446;2022-08-19T07:58:46;8.00;;;5.20;;
7162;SDS011;3623;47.098;15.446;2022-08-19T08:01:15;5.63;;;4.00;;
7162;SDS011;3623;47.098;15.446;2022-08-19T08:03:44;8.97;;;4.13;;
7162;SDS011;3623;47.098;15.446;2022-08-19T08:06:31;8.60;;;4.00;;
7162;SDS011;3623;47.098;15.446;2022-08-19T08:09:19;6.10;;;4.20;;
7162;SDS011;3623;47.098;15.446;2022-08-19T08:11:51;6.83;;;4.27;;
7162;SDS011;3623;47.098;15.446;2022-08-19T08:14:21;5.50;;;4.33;;
7162;SDS011;3623;47.098;15.446;2022-08-19T08:16:51;4.73;;;3.30;;
7162;SDS011;3623;47.098;15.446;2022-08-19T08:19:18;4.80;;;3.87;;
7162;SDS011;3623;47.098;15.446;2022-08-19T08:21:49;7.67;;;3.53;;
7162;SDS011;3623;47.098;15.446;2022-08-19T08:24:17;4.70;;;3.87;;
7162;SDS011;3623;47.098;15.446;2022-08-19T08:26:45;4.23;;;3.80;;
7162;SDS011;3623;47.098;15.446;2022-08-19T08:29:12;3.40;;;3.10;;
7162;SDS011;3623;47.098;15.446;2022-08-19T08:31:41;7.00;;;4.00;;
7162;SDS011;3623;47.098;15.446;2022-08-19T08:34:10;4.17;;;3.57;;
7162;SDS011;3623;47.098;15.446;2022-08-19T08:36:39;5.33;;;4.00;;
7162;SDS011;3623;47.098;15.446;2022-08-19T08:39:09;13.57;;;4.07;;
7162;SDS011;3623;47.098;15.446;2022-08-19T08:41:40;5.23;;;3.93;;
7162;SDS011;3623;47.098;15.446;2022-08-19T08:44:20;7.07;;;4.00;;
7162;SDS011;3623;47.098;15.446;2022-08-19T08:46:50;5.23;;;3.73;;
7162;SDS011;3623;47.098;15.446;2022-08-19T08:49:26;9.93;;;4.17;;
7162;SDS011;3623;47.098;15.446;2022-08-19T08:51:59;8.27;;;4.70;;
7162;SDS011;3623;47.098;15.446;2022-08-19T08:54:32;5.93;;;4.40;;
7162;SDS011;3623;47.098;15.446;2022-08-19T08:57:02;6.03;;;4.60;;
7162;SDS011;3623;47.098;15.446;2022-08-19T08:59:35;7.17;;;4.83;;
7162;SDS011;3623;47.098;15.446;2022-08-19T09:02:06;6.30;;;4.93;;
7162;SDS011;3623;47.098;15.446;2022-08-19T09:04:35;10.17;;;4.57;;
7162;SDS011;3623;47.098;15.446;2022-08-19T09:07:11;9.07;;;5.73;;
7162;SDS011;3623;47.098;15.446;2022-08-19T09:09:48;5.00;;;4.50;;
7162;SDS011;3623;47.098;15.446;2022-08-19T09:12:20;5.73;;;5.20;;
7162;SDS011;3623;47.098;15.446;2022-08-19T09:15:00;8.40;;;4.40;;
7162;SDS011;3623;47.098;15.446;2022-08-19T09:17:31;4.70;;;4.30;;
7162;SDS011;3623;47.098;15.446;2022-08-19T09:20:00;4.70;;;4.00;;
7162;SDS011;3623;47.098;15.446;2022-08-19T09:22:33;5.20;;;4.67;;
7162;SDS011;3623;47.098;15.446;2022-08-19T09:25:02;6.23;;;3.93;;
7162;SDS011;3623;47.098;15.446;2022-08-19T09:27:30;7.80;;;4.70;;
7162;SDS011;3623;47.098;15.446;2022-08-19T09:29:57;7.73;;;4.90;;
7162;SDS011;3623;47.098;15.446;2022-08-19T09:32:25;4.93;;;4.20;;
7162;SDS011;3623;47.098;15.446;2022-08-19T09:34:53;6.27;;;4.80;;
7162;SDS011;3623;47.098;15.446;2022-08-19T09:37:23;5.40;;;4.77;;
7162;SDS011;3623;47.098;15.446;2022-08-19T09:39:50;9.03;;;5.00;;
7162;SDS011;3623;47.098;15.446;2022-08-19T09:42:19;8.47;;;4.90;;
7162;SDS011;3623;47.098;15.446;2022-08-19T09:44:46;7.57;;;5.00;;
7162;SDS011;3623;47.098;15.446;2022-08-19T09:47:13;6.00;;;3.90;;
7162;SDS011;3623;47.098;15.446;2022-08-19T09:49:40;6.53;;;5.27;;
7162;SDS011;3623;47.098;15.446;2022-08-19T09:52:08;8.10;;;5.20;;
7162;SDS011;3623;47.098;15.446;2022-08-19T09:54:36;7.20;;;3.90;;
7162;SDS011;3623;47.098;15.446;2022-08-19T09:57:03;7.10;;;5.03;;
7162;SDS011;3623;47.098;15.446;2022-08-19T09:59:33;5.70;;;4.10;;
7162;SDS011;3623;47.098;15.446;2022-08-19T10:02:00;8.53;;;4.37;;
7162;SDS011;3623;47.098;15.446;2022-08-19T10:04:27;5.53;;;4.70;;
7162;SDS011;3623;47.098;15.446;2022-08-19T10:07:08;3.90;;;3.60;;
7162;SDS011;3623;47.098;15.446;2022-08-19T10:09:35;6.10;;;4.90;;
7162;SDS011;3623;47.098;15.446;2022-08-19T10:12:03;5.97;;;4.70;;
7162;SDS011;3623;47.098;15.446;2022-08-19T10:14:32;7.53;;;4.40;;
7162;SDS011;3623;47.098;15.446;2022-08-19T10:17:00;5.27;;;4.77;;
7162;SDS011;3623;47.098;15.446;2022-08-19T10:19:28;6.23;;;5.27;;
7162;SDS011;3623;47.098;15.446;2022-08-19T10:22:02;7.53;;;4.60;;
7162;SDS011;3623;47.098;15.446;2022-08-19T10:24:30;5.20;;;4.27;;
7162;SDS011;3623;47.098;15.446;2022-08-19T10:26:58;6.17;;;5.10;;
7162;SDS011;3623;47.098;15.446;2022-08-19T10:29:29;6.50;;;4.07;;
7162;SDS011;3623;47.098;15.446;2022-08-19T10:32:01;6.67;;;4.90;;
7162;SDS011;3623;47.098;15.446;2022-08-19T10:34:29;7.43;;;4.20;;
7162;SDS011;3623;47.098;15.446;2022-08-19T10:36:57;7.83;;;5.83;;
7162;SDS011;3623;47.098;15.446;2022-08-19T10:39:24;4.97;;;4.57;;
7162;SDS011;3623;47.098;15.446;2022-08-19T10:41:54;6.33;;;4.57;;
7162;SDS011;3623;47.098;15.446;2022-08-19T10:44:22;5.90;;;4.10;;
7162;SDS011;3623;47.098;15.446;2022-08-19T10:46:50;6.57;;;4.07;;
7162;SDS011;3623;47.098;15.446;2022-08-19T10:49:19;5.60;;;4.50;;
7162;SDS011;3623;47.098;15.446;2022-08-19T10:51:46;7.33;;;5.33;;
7162;SDS011;3623;47.098;15.446;2022-08-19T10:54:31;10.77;;;6.53;;
7162;SDS011;3623;47.098;15.446;2022-08-19T10:57:17;7.20;;;5.03;;
7162;SDS011;3623;47.098;15.446;2022-08-19T10:59:44;5.07;;;3.93;;
7162;SDS011;3623;47.098;15.446;2022-08-19T11:02:11;8.10;;;5.07;;
7162;SDS011;3623;47.098;15.446;2022-08-19T11:04:40;4.67;;;3.87;;
7162;SDS011;3623;47.098;15.446;2022-08-19T11:07:08;4.07;;;3.67;;
7162;SDS011;3623;47.098;15.446;2022-08-19T11:09:37;8.03;;;3.80;;
7162;SDS011;3623;47.098;15.446;2022-08-19T11:12:06;5.13;;;3.20;;
7162;SDS011;3623;47.098;15.446;2022-08-19T11:14:34;6.80;;;4.83;;
7162;SDS011;3623;47.098;15.446;2022-08-19T11:17:02;5.73;;;3.97;;
7162;SDS011;3623;47.098;15.446;2022-08-19T11:19:31;3.90;;;3.50;;
7162;SDS011;3623;47.098;15.446;2022-08-19T11:22:01;6.17;;;3.57;;
7162;SDS011;3623;47.098;15.446;2022-08-19T11:24:28;6.50;;;3.00;;
7162;SDS011;3623;47.098;15.446;2022-08-19T11:27:00;6.90;;;3.13;;
7162;SDS011;3623;47.098;15.446;2022-08-19T11:29:29;4.53;;;2.93;;
7162;SDS011;3623;47.098;15.446;2022-08-19T11:31:59;4.83;;;2.63;;
7162;SDS011;3623;47.098;15.446;2022-08-19T11:34:29;8.37;;;3.23;;
7162;SDS011;3623;47.098;15.446;2022-08-19T11:36:57;3.43;;;3.00;;
7162;SDS011;3623;47.098;15.446;2022-08-19T11:39:26;4.47;;;2.80;;
7162;SDS011;3623;47.098;15.446;2022-08-19T11:41:55;7.97;;;2.50;;
7162;SDS011;3623;47.098;15.446;2022-08-19T11:44:25;5.03;;;3.13;;
7162;SDS011;3623;47.098;15.446;2022-08-19T11:46:52;8.00;;;3.47;;
7162;SDS011;3623;47.098;15.446;2022-08-19T11:49:23;4.13;;;3.07;;
7162;SDS011;3623;47.098;15.446;2022-08-19T11:51:51;4.10;;;2.90;;
7162;SDS011;3623;47.098;15.446;2022-08-19T11:54:18;5.80;;;3.40;;
7162;SDS011;3623;47.098;15.446;2022-08-19T11:56:47;5.33;;;3.87;;
7162;SDS011;3623;47.098;15.446;2022-08-19T11:59:16;7.53;;;3.20;;
7162;SDS011;3623;47.098;15.446;2022-08-19T12:01:43;5.27;;;3.50;;
7162;SDS011;3623;47.098;15.446;2022-08-19T12:04:11;4.60;;;2.97;;
7162;SDS011;3623;47.098;15.446;2022-08-19T12:06:39;4.80;;;2.93;;
7162;SDS011;3623;47.098;15.446;2022-08-19T12:09:07;5.07;;;2.80;;
7162;SDS011;3623;47.098;15.446;2022-08-19T12:11:36;5.13;;;4.10;;
7162;SDS011;3623;47.098;15.446;2022-08-19T12:14:06;9.00;;;3.53;;
7162;SDS011;3623;47.098;15.446;2022-08-19T12:16:35;8.23;;;3.20;;
7162;SDS011;3623;47.098;15.446;2022-08-19T12:19:03;8.40;;;3.47;;
7162;SDS011;3623;47.098;15.446;2022-08-19T12:21:32;7.43;;;2.73;;
7162;SDS011;3623;47.098;15.446;2022-08-19T12:24:01;9.20;;;3.60;;
7162;SDS011;3623;47.098;15.446;2022-08-19T12:26:30;5.70;;;3.37;;
7162;SDS011;3623;47.098;15.446;2022-08-19T12:28:57;3.67;;;2.90;;
7162;SDS011;3623;47.098;15.446;2022-08-19T12:31:26;4.97;;;3.03;;
7162;SDS011;3623;47.098;15.446;2022-08-19T12:33:54;4.63;;;2.77;;
7162;SDS011;3623;47.098;15.446;2022-08-19T12:36:22;5.73;;;2.93;;
7162;SDS011;3623;47.098;15.446;2022-08-19T12:38:50;5.10;;;2.70;;
7162;SDS011;3623;47.098;15.446;2022-08-19T12:41:17;4.00;;;2.50;;
7162;SDS011;3623;47.098;15.446;2022-08-19T12:43:47;4.03;;;2.43;;
7162;SDS011;3623;47.098;15.446;2022-08-19T12:46:15;7.83;;;2.60;;
7162;SDS011;3623;47.098;15.446;2022-08-19T12:48:44;5.87;;;2.37;;
7162;SDS011;3623;47.098;15.446;2022-08-19T12:51:12;5.30;;;3.30;;
7162;SDS011;3623;47.098;15.446;2022-08-19T12:53:41;4.27;;;2.40;;
7162;SDS011;3623;47.098;15.446;2022-08-19T12:56:09;4.20;;;2.80;;
7162;SDS011;3623;47.098;15.446;2022-08-19T12:58:39;6.80;;;3.10;;
7162;SDS011;3623;47.098;15.446;2022-08-19T13:01:07;3.90;;;2.50;;
7162;SDS011;3623;47.098;15.446;2022-08-19T13:03:36;5.87;;;2.80;;
7162;SDS011;3623;47.098;15.446;2022-08-19T13:06:05;5.07;;;2.40;;
7162;SDS011;3623;47.098;15.446;2022-08-19T13:08:32;7.70;;;2.90;;
7162;SDS011;3623;47.098;15.446;2022-08-19T13:11:06;5.60;;;2.83;;
7162;SDS011;3623;47.098;15.446;2022-08-19T13:13:36;5.27;;;2.80;;
7162;SDS011;3623;47.098;15.446;2022-08-19T13:16:06;6.03;;;2.33;;
7162;SDS011;3623;47.098;15.446;2022-08-19T13:18:33;4.27;;;2.27;;
7162;SDS011;3623;47.098;15.446;2022-08-19T13:21:01;8.03;;;2.90;;
7162;SDS011;3623;47.098;15.446;2022-08-19T13:23:32;4.53;;;2.70;;
7162;SDS011;3623;47.098;15.446;2022-08-19T13:26:02;6.93;;;2.60;;
7162;SDS011;3623;47.098;15.446;2022-08-19T13:28:31;8.83;;;2.87;;
7162;SDS011;3623;47.098;15.446;2022-08-19T13:31:14;6.13;;;2.73;;
7162;SDS011;3623;47.098;15.446;2022-08-19T13:33:59;7.70;;;3.63;;
7162;SDS011;3623;47.098;15.446;2022-08-19T13:36:27;6.50;;;2.40;;
7162;SDS011;3623;47.098;15.446;2022-08-19T13:38:55;5.10;;;2.63;;
7162;SDS011;3623;47.098;15.446;2022-08-19T13:41:23;6.57;;;3.20;;
7162;SDS011;3623;47.098;15.446;2022-08-19T13:43:50;12.00;;;3.70;;
7162;SDS011;3623;47.098;15.446;2022-08-19T13:46:17;5.63;;;3.77;;
7162;SDS011;3623;47.098;15.446;2022-08-19T13:48:45;5.60;;;2.90;;
7162;SDS011;3623;47.098;15.446;2022-08-19T13:51:13;6.20;;;3.33;;
7162;SDS011;3623;47.098;15.446;2022-08-19T13:53:42;6.00;;;3.00;;
7162;SDS011;3623;47.098;15.446;2022-08-19T13:56:12;5.10;;;2.90;;
7162;SDS011;3623;47.098;15.446;2022-08-19T13:58:40;4.70;;;2.90;;
7162;SDS011;3623;47.098;15.446;2022-08-19T14:01:07;4.80;;;3.00;;
7162;SDS011;3623;47.098;15.446;2022-08-19T14:03:35;9.13;;;3.90;;
7162;SDS011;3623;47.098;15.446;2022-08-19T14:06:03;6.93;;;3.30;;
7162;SDS011;3623;47.098;15.446;2022-08-19T14:08:30;4.50;;;3.10;;
7162;SDS011;3623;47.098;15.446;2022-08-19T14:10:58;7.97;;;3.70;;
7162;SDS011;3623;47.098;15.446;2022-08-19T14:13:26;5.77;;;3.10;;
7162;SDS011;3623;47.098;15.446;2022-08-19T14:15:54;8.27;;;3.40;;
7162;SDS011;3623;47.098;15.446;2022-08-19T14:18:21;5.30;;;2.80;;
7162;SDS011;3623;47.098;15.446;2022-08-19T14:20:50;7.77;;;3.27;;
7162;SDS011;3623;47.098;15.446;2022-08-19T14:23:17;13.33;;;3.30;;
7162;SDS011;3623;47.098;15.446;2022-08-19T14:25:45;8.13;;;3.43;;
7162;SDS011;3623;47.098;15.446;2022-08-19T14:28:12;7.23;;;2.80;;
7162;SDS011;3623;47.098;15.446;2022-08-19T14:33:14;3.53;;;2.13;;
7162;SDS011;3623;47.098;15.446;2022-08-19T14:35:41;5.57;;;3.90;;
7162;SDS011;3623;47.098;15.446;2022-08-19T14:38:14;6.10;;;3.20;;
7162;SDS011;3623;47.098;15.446;2022-08-19T14:40:49;5.23;;;3.43;;
7162;SDS011;3623;47.098;15.446;2022-08-19T14:43:17;5.33;;;3.33;;
7162;SDS011;3623;47.098;15.446;2022-08-19T14:45:44;5.30;;;2.90;;
7162;SDS011;3623;47.098;15.446;2022-08-19T14:48:13;5.80;;;3.37;;
7162;SDS011;3623;47.098;15.446;2022-08-19T14:50:41;5.83;;;2.80;;
7162;SDS011;3623;47.098;15.446;2022-08-19T14:53:09;7.30;;;4.00;;
7162;SDS011;3623;47.098;15.446;2022-08-19T14:55:39;5.63;;;3.20;;
7162;SDS011;3623;47.098;15.446;2022-08-19T14:58:07;7.53;;;3.23;;
7162;SDS011;3623;47.098;15.446;2022-08-19T15:00:41;4.60;;;3.00;;
7162;SDS011;3623;47.098;15.446;2022-08-19T15:03:09;5.10;;;3.13;;
7162;SDS011;3623;47.098;15.446;2022-08-19T15:05:38;10.03;;;3.50;;
7162;SDS011;3623;47.098;15.446;2022-08-19T15:08:06;9.03;;;3.20;;
7162;SDS011;3623;47.098;15.446;2022-08-19T15:10:33;6.40;;;2.70;;
7162;SDS011;3623;47.098;15.446;2022-08-19T15:13:00;5.57;;;3.77;;
7162;SDS011;3623;47.098;15.446;2022-08-19T15:15:28;8.93;;;3.33;;
7162;SDS011;3623;47.098;15.446;2022-08-19T15:17:55;6.93;;;3.33;;